sensor_id;sensor_type;location;lat;lon;timestamp;pressure;altitude;pressure_sealevel;temperature;humidity
55022;BME280;68328;35.990;-86.756;2024-03-25T00:01:30;98616.60;;;25.71;12.20
55022;BME280;68328;35.990;-86.756;2024-03-25T00:03:57;98618.61;;;25.98;11.77
55022;BME280;68328;35.990;-86.756;2024-03-25T00:06:22;98623.19;;;25.89;11.82
55022;BME280;68328;35.990;-86.756;2024-03-25T00:08:47;98632.76;;;25.94;11.45
55022;BME280;68328;35.990;-86.756;2024-03-25T00:11:11;98635.77;;;25.68;11.71
55022;BME280;68328;35.990;-86.756;2024-03-25T00:13:37;98637.14;;;25.57;11.45
55022;BME280;68328;35.990;-86.756;2024-03-25T00:16:02;98639.08;;;25.61;11.58
55022;BME280;68328;35.990;-86.756;2024-03-25T00:18:27;98639.31;;;25.29;11.93
55022;BME280;68328;35.990;-86.756;2024-03-25T00:20:53;98637.44;;;25.15;12.18
55022;BME280;68328;35.990;-86.756;2024-03-25T00:23:18;98631.35;;;25.35;11.96
55022;BME280;68328;35.990;-86.756;2024-03-25T00:25:43;98629.96;;;25.27;12.56
55022;BME280;68328;35.990;-86.756;2024-03-25T00:28:09;98629.40;;;25.35;12.60
55022;BME280;68328;35.990;-86.756;2024-03-25T00:30:34;98619.42;;;25.35;12.19
55022;BME280;68328;35.990;-86.756;2024-03-25T00:32:59;98617.19;;;25.15;12.62
55022;BME280;68328;35.990;-86.756;2024-03-25T00:35:24;98614.83;;;25.32;12.67
55022;BME280;68328;35.990;-86.756;2024-03-25T00:37:49;98613.63;;;25.39;12.64
55022;BME280;68328;35.990;-86.756;2024-03-25T00:40:18;98615.68;;;25.30;12.35
55022;BME280;68328;35.990;-86.756;2024-03-25T00:42:40;98621.90;;;24.92;12.53
55022;BME280;68328;35.990;-86.756;2024-03-25T00:45:06;98618.20;;;24.77;12.64
55022;BME280;68328;35.990;-86.756;2024-03-25T00:47:31;98624.02;;;24.91;13.29
55022;BME280;68328;35.990;-86.756;2024-03-25T00:49:56;98623.13;;;25.02;12.66
55022;BME280;68328;35.990;-86.756;2024-03-25T00:52:22;98623.90;;;25.05;12.85
55022;BME280;68328;35.990;-86.756;2024-03-25T00:54:47;98614.21;;;24.86;13.00
55022;BME280;68328;35.990;-86.756;2024-03-25T00:57:12;98614.76;;;25.19;13.12
55022;BME280;68328;35.990;-86.756;2024-03-25T00:59:39;98609.56;;;25.20;12.79
55022;BME280;68328;35.990;-86.756;2024-03-25T01:02:04;98604.53;;;25.14;13.09
55022;BME280;68328;35.990;-86.756;2024-03-25T01:04:31;98603.74;;;25.19;13.14
55022;BME280;68328;35.990;-86.756;2024-03-25T01:06:54;98610.35;;;24.82;13.59
55022;BME280;68328;35.990;-86.756;2024-03-25T01:09:19;98611.56;;;24.55;13.59
55022;BME280;68328;35.990;-86.756;2024-03-25T01:11:44;98611.00;;;24.83;13.59
55022;BME280;68328;35.990;-86.756;2024-03-25T01:14:09;98607.90;;;24.55;13.36
55022;BME280;68328;35.990;-86.756;2024-03-25T01:16:35;98606.62;;;24.20;13.55
55022;BME280;68328;35.990;-86.756;2024-03-25T01:19:01;98607.04;;;24.32;13.69
55022;BME280;68328;35.990;-86.756;2024-03-25T01:21:27;98606.75;;;23.90;13.48
55022;BME280;68328;35.990;-86.756;2024-03-25T01:23:51;98602.86;;;24.13;13.80
55022;BME280;68328;35.990;-86.756;2024-03-25T01:26:17;98600.93;;;24.18;13.57
55022;BME280;68328;35.990;-86.756;2024-03-25T01:28:42;98601.00;;;24.27;14.02
55022;BME280;68328;35.990;-86.756;2024-03-25T01:31:07;98600.69;;;24.18;13.56
55022;BME280;68328;35.990;-86.756;2024-03-25T01:33:33;98598.80;;;24.10;13.88
55022;BME280;68328;35.990;-86.756;2024-03-25T01:35:58;98597.03;;;24.20;13.89
55022;BME280;68328;35.990;-86.756;2024-03-25T01:38:24;98595.01;;;24.16;14.02
55022;BME280;68328;35.990;-86.756;2024-03-25T01:40:48;98604.12;;;24.50;14.36
55022;BME280;68328;35.990;-86.756;2024-03-25T01:43:13;98604.78;;;24.30;14.41
55022;BME280;68328;35.990;-86.756;2024-03-25T01:45:39;98602.37;;;24.43;14.48
55022;BME280;68328;35.990;-86.756;2024-03-25T01:48:08;98597.92;;;24.30;14.52
55022;BME280;68328;35.990;-86.756;2024-03-25T01:50:30;98600.81;;;24.19;14.92
55022;BME280;68328;35.990;-86.756;2024-03-25T01:52:55;98614.49;;;24.10;14.47
55022;BME280;68328;35.990;-86.756;2024-03-25T01:55:22;98615.14;;;24.03;14.90
55022;BME280;68328;35.990;-86.756;2024-03-25T01:57:45;98627.02;;;24.11;14.92
55022;BME280;68328;35.990;-86.756;2024-03-25T02:00:11;98629.10;;;24.07;14.76
55022;BME280;68328;35.990;-86.756;2024-03-25T02:02:36;98633.34;;;23.72;14.79
55022;BME280;68328;35.990;-86.756;2024-03-25T02:05:01;98628.93;;;24.04;14.60
55022;BME280;68328;35.990;-86.756;2024-03-25T02:07:27;98633.91;;;23.97;14.99
55022;BME280;68328;35.990;-86.756;2024-03-25T02:09:52;98629.02;;;23.89;14.82
55022;BME280;68328;35.990;-86.756;2024-03-25T02:12:17;98637.91;;;23.80;14.39
55022;BME280;68328;35.990;-86.756;2024-03-25T02:14:43;98646.78;;;23.62;14.67
55022;BME280;68328;35.990;-86.756;2024-03-25T02:17:08;98653.99;;;23.64;14.69
55022;BME280;68328;35.990;-86.756;2024-03-25T02:19:34;98649.97;;;23.63;14.82
55022;BME280;68328;35.990;-86.756;2024-03-25T02:21:58;98649.58;;;23.69;15.44
55022;BME280;68328;35.990;-86.756;2024-03-25T02:24:24;98648.71;;;23.52;15.25
55022;BME280;68328;35.990;-86.756;2024-03-25T02:26:49;98651.71;;;23.59;15.04
55022;BME280;68328;35.990;-86.756;2024-03-25T02:29:14;98647.58;;;23.66;14.72
55022;BME280;68328;35.990;-86.756;2024-03-25T02:31:39;98652.38;;;23.65;14.52
55022;BME280;68328;35.990;-86.756;2024-03-25T02:34:05;98648.76;;;23.42;14.41
55022;BME280;68328;35.990;-86.756;2024-03-25T02:36:30;98653.81;;;23.51;15.05
55022;BME280;68328;35.990;-86.756;2024-03-25T02:38:55;98650.32;;;23.21;14.63
55022;BME280;68328;35.990;-86.756;2024-03-25T02:41:21;98657.83;;;23.08;14.91
55022;BME280;68328;35.990;-86.756;2024-03-25T02:43:47;98659.63;;;23.33;14.96
55022;BME280;68328;35.990;-86.756;2024-03-25T02:46:12;98657.65;;;23.56;14.81
55022;BME280;68328;35.990;-86.756;2024-03-25T02:48:36;98665.66;;;23.74;14.41
55022;BME280;68328;35.990;-86.756;2024-03-25T02:51:02;98676.09;;;23.42;14.63
55022;BME280;68328;35.990;-86.756;2024-03-25T02:53:28;98682.32;;;23.28;15.09
55022;BME280;68328;35.990;-86.756;2024-03-25T02:55:52;98685.46;;;22.50;15.04
55022;BME280;68328;35.990;-86.756;2024-03-25T02:58:17;98683.82;;;22.27;15.59
55022;BME280;68328;35.990;-86.756;2024-03-25T03:00:44;98684.88;;;21.94;15.93
55022;BME280;68328;35.990;-86.756;2024-03-25T03:03:08;98690.30;;;22.34;15.60
55022;BME280;68328;35.990;-86.756;2024-03-25T03:05:34;98694.54;;;21.98;15.48
55022;BME280;68328;35.990;-86.756;2024-03-25T03:07:59;98698.55;;;21.80;15.68
55022;BME280;68328;35.990;-86.756;2024-03-25T03:10:24;98703.00;;;21.41;15.82
55022;BME280;68328;35.990;-86.756;2024-03-25T03:12:49;98707.92;;;21.77;16.19
55022;BME280;68328;35.990;-86.756;2024-03-25T03:15:15;98711.49;;;21.46;15.94
55022;BME280;68328;35.990;-86.756;2024-03-25T03:17:41;98704.38;;;21.67;16.47
55022;BME280;68328;35.990;-86.756;2024-03-25T03:20:06;98709.93;;;22.04;16.41
55022;BME280;68328;35.990;-86.756;2024-03-25T03:22:32;98711.09;;;21.71;16.12
55022;BME280;68328;35.990;-86.756;2024-03-25T03:24:56;98706.37;;;21.89;16.10
55022;BME280;68328;35.990;-86.756;2024-03-25T03:27:21;98714.61;;;22.11;16.16
55022;BME280;68328;35.990;-86.756;2024-03-25T03:29:47;98708.82;;;22.15;16.20
55022;BME280;68328;35.990;-86.756;2024-03-25T03:32:12;98713.37;;;21.95;16.25
55022;BME280;68328;35.990;-86.756;2024-03-25T03:34:37;98712.42;;;21.91;16.24
55022;BME280;68328;35.990;-86.756;2024-03-25T03:37:03;98707.63;;;21.48;16.91
55022;BME280;68328;35.990;-86.756;2024-03-25T03:39:28;98709.29;;;21.71;16.63
55022;BME280;68328;35.990;-86.756;2024-03-25T03:41:54;98701.23;;;21.33;16.66
55022;BME280;68328;35.990;-86.756;2024-03-25T03:44:19;98702.22;;;21.49;16.59
55022;BME280;68328;35.990;-86.756;2024-03-25T03:46:44;98712.19;;;21.52;16.68
55022;BME280;68328;35.990;-86.756;2024-03-25T03:49:09;98719.72;;;21.47;16.89
55022;BME280;68328;35.990;-86.756;2024-03-25T03:51:34;98724.59;;;21.29;16.77
55022;BME280;68328;35.990;-86.756;2024-03-25T03:54:00;98720.20;;;21.18;17.08
55022;BME280;68328;35.990;-86.756;2024-03-25T03:56:25;98724.05;;;21.45;17.09
55022;BME280;68328;35.990;-86.756;2024-03-25T03:58:50;98717.50;;;21.16;17.05
55022;BME280;68328;35.990;-86.756;2024-03-25T04:01:17;98720.25;;;21.53;17.58
55022;BME280;68328;35.990;-86.756;2024-03-25T04:03:41;98716.72;;;21.22;17.23
55022;BME280;68328;35.990;-86.756;2024-03-25T04:06:09;98721.54;;;21.08;17.55
55022;BME280;68328;35.990;-86.756;2024-03-25T04:08:31;98724.52;;;20.93;17.86
55022;BME280;68328;35.990;-86.756;2024-03-25T04:10:57;98724.80;;;21.06;17.73
55022;BME280;68328;35.990;-86.756;2024-03-25T04:13:22;98723.34;;;21.10;17.73
55022;BME280;68328;35.990;-86.756;2024-03-25T04:15:47;98724.81;;;21.18;17.67
55022;BME280;68328;35.990;-86.756;2024-03-25T04:18:13;98726.46;;;21.11;17.83
55022;BME280;68328;35.990;-86.756;2024-03-25T04:20:39;98725.83;;;20.92;18.04
55022;BME280;68328;35.990;-86.756;2024-03-25T04:23:03;98733.01;;;21.52;17.54
55022;BME280;68328;35.990;-86.756;2024-03-25T04:25:28;98727.68;;;21.36;17.56
55022;BME280;68328;35.990;-86.756;2024-03-25T04:27:54;98737.87;;;21.25;17.37
55022;BME280;68328;35.990;-86.756;2024-03-25T04:30:20;98740.28;;;21.53;17.90
55022;BME280;68328;35.990;-86.756;2024-03-25T04:32:45;98732.70;;;21.70;17.57
55022;BME280;68328;35.990;-86.756;2024-03-25T04:35:09;98741.27;;;21.42;17.28
55022;BME280;68328;35.990;-86.756;2024-03-25T04:37:35;98748.91;;;21.35;17.57
55022;BME280;68328;35.990;-86.756;2024-03-25T04:40:00;98750.94;;;21.12;18.01
55022;BME280;68328;35.990;-86.756;2024-03-25T04:42:26;98753.96;;;21.21;17.85
55022;BME280;68328;35.990;-86.756;2024-03-25T04:44:53;98766.36;;;21.57;17.42
55022;BME280;68328;35.990;-86.756;2024-03-25T04:47:17;98769.15;;;21.06;17.56
55022;BME280;68328;35.990;-86.756;2024-03-25T04:49:42;98767.20;;;21.21;18.18
55022;BME280;68328;35.990;-86.756;2024-03-25T04:52:07;98772.66;;;21.23;18.06
55022;BME280;68328;35.990;-86.756;2024-03-25T04:54:32;98767.38;;;20.89;18.17
55022;BME280;68328;35.990;-86.756;2024-03-25T04:56:58;98768.74;;;20.92;18.09
55022;BME280;68328;35.990;-86.756;2024-03-25T04:59:23;98771.80;;;20.64;18.20
55022;BME280;68328;35.990;-86.756;2024-03-25T05:01:48;98780.17;;;20.55;18.52
55022;BME280;68328;35.990;-86.756;2024-03-25T05:04:14;98778.27;;;20.48;18.26
55022;BME280;68328;35.990;-86.756;2024-03-25T05:06:39;98780.08;;;20.47;18.17
55022;BME280;68328;35.990;-86.756;2024-03-25T05:09:04;98769.08;;;20.81;18.40
55022;BME280;68328;35.990;-86.756;2024-03-25T05:11:30;98767.82;;;20.79;18.11
55022;BME280;68328;35.990;-86.756;2024-03-25T05:13:55;98754.43;;;20.67;17.95
55022;BME280;68328;35.990;-86.756;2024-03-25T05:16:22;98748.09;;;20.55;18.27
55022;BME280;68328;35.990;-86.756;2024-03-25T05:18:46;98751.11;;;21.32;17.87
55022;BME280;68328;35.990;-86.756;2024-03-25T05:21:12;98741.94;;;20.90;17.95
55022;BME280;68328;35.990;-86.756;2024-03-25T05:23:38;98752.62;;;20.86;17.76
55022;BME280;68328;35.990;-86.756;2024-03-25T05:26:01;98753.27;;;20.82;18.23
55022;BME280;68328;35.990;-86.756;2024-03-25T05:28:28;98763.93;;;20.67;18.06
55022;BME280;68328;35.990;-86.756;2024-03-25T05:30:53;98760.42;;;21.14;18.00
55022;BME280;68328;35.990;-86.756;2024-03-25T05:33:18;98774.39;;;21.22;17.87
55022;BME280;68328;35.990;-86.756;2024-03-25T05:35:43;98783.21;;;21.13;17.84
55022;BME280;68328;35.990;-86.756;2024-03-25T05:38:08;98779.55;;;21.08;18.22
55022;BME280;68328;35.990;-86.756;2024-03-25T05:40:33;98783.74;;;20.82;18.40
55022;BME280;68328;35.990;-86.756;2024-03-25T05:42:59;98783.64;;;20.81;18.18
55022;BME280;68328;35.990;-86.756;2024-03-25T05:45:24;98797.29;;;20.28;18.57
55022;BME280;68328;35.990;-86.756;2024-03-25T05:47:50;98804.09;;;20.12;18.93
55022;BME280;68328;35.990;-86.756;2024-03-25T05:50:15;98807.75;;;20.32;19.01
55022;BME280;68328;35.990;-86.756;2024-03-25T05:52:40;98824.59;;;20.43;18.90
55022;BME280;68328;35.990;-86.756;2024-03-25T05:55:05;98822.90;;;19.44;19.65
55022;BME280;68328;35.990;-86.756;2024-03-25T05:57:30;98831.12;;;19.64;19.85
55022;BME280;68328;35.990;-86.756;2024-03-25T05:59:56;98835.76;;;19.78;19.54
55022;BME280;68328;35.990;-86.756;2024-03-25T06:02:22;98823.03;;;20.05;19.26
55022;BME280;68328;35.990;-86.756;2024-03-25T06:04:47;98823.43;;;20.25;19.22
55022;BME280;68328;35.990;-86.756;2024-03-25T06:07:12;98820.96;;;19.72;19.33
55022;BME280;68328;35.990;-86.756;2024-03-25T06:09:37;98823.89;;;19.86;19.35
55022;BME280;68328;35.990;-86.756;2024-03-25T06:12:03;98807.75;;;19.63;19.65
55022;BME280;68328;35.990;-86.756;2024-03-25T06:14:28;98816.87;;;19.48;19.68
55022;BME280;68328;35.990;-86.756;2024-03-25T06:16:53;98813.25;;;19.73;19.84
55022;BME280;68328;35.990;-86.756;2024-03-25T06:19:18;98813.71;;;19.81;19.58
55022;BME280;68328;35.990;-86.756;2024-03-25T06:21:44;98822.45;;;19.75;19.65
55022;BME280;68328;35.990;-86.756;2024-03-25T06:24:09;98824.30;;;20.09;19.80
55022;BME280;68328;35.990;-86.756;2024-03-25T06:26:34;98811.31;;;19.97;19.97
55022;BME280;68328;35.990;-86.756;2024-03-25T06:29:01;98807.78;;;19.92;20.11
55022;BME280;68328;35.990;-86.756;2024-03-25T06:31:25;98801.06;;;19.64;20.00
55022;BME280;68328;35.990;-86.756;2024-03-25T06:33:51;98800.19;;;19.74;19.78
55022;BME280;68328;35.990;-86.756;2024-03-25T06:36:16;98809.48;;;20.25;19.42
55022;BME280;68328;35.990;-86.756;2024-03-25T06:38:41;98813.14;;;20.55;19.27
55022;BME280;68328;35.990;-86.756;2024-03-25T06:41:07;98813.99;;;20.28;19.33
55022;BME280;68328;35.990;-86.756;2024-03-25T06:43:32;98813.71;;;20.61;19.07
55022;BME280;68328;35.990;-86.756;2024-03-25T06:45:57;98805.06;;;20.77;19.43
55022;BME280;68328;35.990;-86.756;2024-03-25T06:48:23;98809.63;;;20.65;19.45
55022;BME280;68328;35.990;-86.756;2024-03-25T06:50:54;98814.26;;;20.19;19.45
55022;BME280;68328;35.990;-86.756;2024-03-25T06:53:14;98814.82;;;20.25;19.62
55022;BME280;68328;35.990;-86.756;2024-03-25T06:55:38;98803.48;;;19.87;19.81
55022;BME280;68328;35.990;-86.756;2024-03-25T06:58:04;98802.86;;;19.47;20.10
55022;BME280;68328;35.990;-86.756;2024-03-25T07:00:29;98804.85;;;19.48;20.33
55022;BME280;68328;35.990;-86.756;2024-03-25T07:02:54;98810.80;;;20.00;19.95
55022;BME280;68328;35.990;-86.756;2024-03-25T07:05:21;98813.69;;;19.92;19.79
55022;BME280;68328;35.990;-86.756;2024-03-25T07:07:45;98809.39;;;20.02;19.94
55022;BME280;68328;35.990;-86.756;2024-03-25T07:10:10;98804.00;;;19.86;19.77
55022;BME280;68328;35.990;-86.756;2024-03-25T07:12:36;98796.93;;;19.34;20.12
55022;BME280;68328;35.990;-86.756;2024-03-25T07:15:01;98784.37;;;19.56;20.42
55022;BME280;68328;35.990;-86.756;2024-03-25T07:17:27;98783.73;;;19.89;19.89
55022;BME280;68328;35.990;-86.756;2024-03-25T07:19:52;98792.61;;;19.56;20.07
55022;BME280;68328;35.990;-86.756;2024-03-25T07:22:17;98793.56;;;19.69;20.48
55022;BME280;68328;35.990;-86.756;2024-03-25T07:24:42;98805.45;;;19.50;20.15
55022;BME280;68328;35.990;-86.756;2024-03-25T07:27:08;98804.64;;;19.96;20.06
55022;BME280;68328;35.990;-86.756;2024-03-25T07:29:34;98812.07;;;20.23;19.68
55022;BME280;68328;35.990;-86.756;2024-03-25T07:31:58;98807.46;;;20.36;19.50
55022;BME280;68328;35.990;-86.756;2024-03-25T07:34:24;98797.56;;;20.12;19.56
55022;BME280;68328;35.990;-86.756;2024-03-25T07:36:49;98798.25;;;20.37;19.62
55022;BME280;68328;35.990;-86.756;2024-03-25T07:39:14;98795.86;;;20.20;19.33
55022;BME280;68328;35.990;-86.756;2024-03-25T07:41:40;98805.96;;;20.27;19.41
55022;BME280;68328;35.990;-86.756;2024-03-25T07:44:05;98800.89;;;19.62;19.86
55022;BME280;68328;35.990;-86.756;2024-03-25T07:46:30;98787.36;;;20.01;20.01
55022;BME280;68328;35.990;-86.756;2024-03-25T07:48:56;98791.76;;;19.87;19.79
55022;BME280;68328;35.990;-86.756;2024-03-25T07:51:21;98792.32;;;20.16;19.80
55022;BME280;68328;35.990;-86.756;2024-03-25T07:53:47;98799.78;;;19.96;19.70
55022;BME280;68328;35.990;-86.756;2024-03-25T07:56:11;98804.37;;;20.22;19.49
55022;BME280;68328;35.990;-86.756;2024-03-25T07:58:37;98805.01;;;19.67;19.94
55022;BME280;68328;35.990;-86.756;2024-03-25T08:01:02;98788.19;;;19.91;19.98
55022;BME280;68328;35.990;-86.756;2024-03-25T08:03:27;98785.49;;;20.09;19.74
55022;BME280;68328;35.990;-86.756;2024-03-25T08:05:53;98790.26;;;19.78;19.85
55022;BME280;68328;35.990;-86.756;2024-03-25T08:08:18;98796.32;;;19.75;20.40
55022;BME280;68328;35.990;-86.756;2024-03-25T08:10:43;98807.47;;;20.24;19.98
55022;BME280;68328;35.990;-86.756;2024-03-25T08:13:09;98806.00;;;20.13;19.94
55022;BME280;68328;35.990;-86.756;2024-03-25T08:15:34;98799.42;;;19.48;19.87
55022;BME280;68328;35.990;-86.756;2024-03-25T08:17:59;98797.17;;;19.42;20.42
55022;BME280;68328;35.990;-86.756;2024-03-25T08:20:25;98802.47;;;19.47;20.21
55022;BME280;68328;35.990;-86.756;2024-03-25T08:22:50;98803.22;;;20.03;19.88
55022;BME280;68328;35.990;-86.756;2024-03-25T08:25:15;98797.35;;;19.73;20.21
55022;BME280;68328;35.990;-86.756;2024-03-25T08:27:41;98805.47;;;20.02;19.76
55022;BME280;68328;35.990;-86.756;2024-03-25T08:30:08;98801.46;;;19.96;19.97
55022;BME280;68328;35.990;-86.756;2024-03-25T08:32:31;98799.00;;;19.94;19.86
55022;BME280;68328;35.990;-86.756;2024-03-25T08:34:57;98797.96;;;19.75;20.19
55022;BME280;68328;35.990;-86.756;2024-03-25T08:37:22;98795.51;;;19.67;20.35
55022;BME280;68328;35.990;-86.756;2024-03-25T08:39:47;98795.81;;;19.86;20.05
55022;BME280;68328;35.990;-86.756;2024-03-25T08:42:13;98804.94;;;20.14;19.77
55022;BME280;68328;35.990;-86.756;2024-03-25T08:44:38;98799.75;;;19.96;19.74
55022;BME280;68328;35.990;-86.756;2024-03-25T08:47:04;98802.70;;;19.41;19.98
55022;BME280;68328;35.990;-86.756;2024-03-25T08:49:29;98806.64;;;19.55;19.90
55022;BME280;68328;35.990;-86.756;2024-03-25T08:51:54;98812.35;;;19.56;20.05
55022;BME280;68328;35.990;-86.756;2024-03-25T08:54:20;98808.22;;;19.48;20.07
55022;BME280;68328;35.990;-86.756;2024-03-25T08:56:45;98807.10;;;19.32;20.14
55022;BME280;68328;35.990;-86.756;2024-03-25T08:59:10;98809.01;;;19.56;20.16
55022;BME280;68328;35.990;-86.756;2024-03-25T09:01:36;98809.18;;;19.63;20.27
55022;BME280;68328;35.990;-86.756;2024-03-25T09:04:01;98811.61;;;20.07;19.89
55022;BME280;68328;35.990;-86.756;2024-03-25T09:06:28;98819.07;;;19.67;20.04
55022;BME280;68328;35.990;-86.756;2024-03-25T09:08:52;98827.58;;;19.78;20.02
55022;BME280;68328;35.990;-86.756;2024-03-25T09:11:17;98832.40;;;19.93;19.93
55022;BME280;68328;35.990;-86.756;2024-03-25T09:13:42;98831.80;;;19.91;19.82
55022;BME280;68328;35.990;-86.756;2024-03-25T09:16:08;98838.17;;;19.95;19.91
55022;BME280;68328;35.990;-86.756;2024-03-25T09:18:34;98844.24;;;19.73;20.23
55022;BME280;68328;35.990;-86.756;2024-03-25T09:20:58;98842.35;;;18.97;20.67
55022;BME280;68328;35.990;-86.756;2024-03-25T09:23:24;98827.50;;;19.05;20.87
55022;BME280;68328;35.990;-86.756;2024-03-25T09:25:53;98840.11;;;19.33;20.60
55022;BME280;68328;35.990;-86.756;2024-03-25T09:28:15;98843.15;;;19.61;20.92
55022;BME280;68328;35.990;-86.756;2024-03-25T09:30:40;98841.45;;;19.29;20.64
55022;BME280;68328;35.990;-86.756;2024-03-25T09:33:05;98846.44;;;19.53;20.45
55022;BME280;68328;35.990;-86.756;2024-03-25T09:35:31;98856.46;;;19.48;20.54
55022;BME280;68328;35.990;-86.756;2024-03-25T09:37:56;98867.67;;;19.70;20.14
55022;BME280;68328;35.990;-86.756;2024-03-25T09:40:21;98869.33;;;19.99;20.37
55022;BME280;68328;35.990;-86.756;2024-03-25T09:42:49;98874.85;;;19.79;20.29
55022;BME280;68328;35.990;-86.756;2024-03-25T09:45:13;98868.26;;;19.65;20.25
55022;BME280;68328;35.990;-86.756;2024-03-25T09:47:40;98869.02;;;19.96;20.25
55022;BME280;68328;35.990;-86.756;2024-03-25T09:50:05;98867.13;;;20.04;20.17
55022;BME280;68328;35.990;-86.756;2024-03-25T09:52:28;98868.04;;;19.81;20.51
55022;BME280;68328;35.990;-86.756;2024-03-25T09:54:54;98874.76;;;19.85;19.90
55022;BME280;68328;35.990;-86.756;2024-03-25T09:57:19;98872.58;;;19.87;20.29
55022;BME280;68328;35.990;-86.756;2024-03-25T09:59:44;98874.81;;;19.84;20.68
55022;BME280;68328;35.990;-86.756;2024-03-25T10:02:10;98870.39;;;19.85;20.55
55022;BME280;68328;35.990;-86.756;2024-03-25T10:04:43;98874.84;;;19.64;20.65
55022;BME280;68328;35.990;-86.756;2024-03-25T10:07:01;98868.76;;;19.80;20.88
55022;BME280;68328;35.990;-86.756;2024-03-25T10:09:25;98863.62;;;19.57;20.81
55022;BME280;68328;35.990;-86.756;2024-03-25T10:11:51;98858.15;;;19.32;21.24
55022;BME280;68328;35.990;-86.756;2024-03-25T10:14:18;98861.16;;;19.49;20.71
55022;BME280;68328;35.990;-86.756;2024-03-25T10:16:41;98859.38;;;19.30;20.86
55022;BME280;68328;35.990;-86.756;2024-03-25T10:19:08;98854.93;;;18.89;21.35
55022;BME280;68328;35.990;-86.756;2024-03-25T10:21:33;98852.02;;;19.21;21.10
55022;BME280;68328;35.990;-86.756;2024-03-25T10:23:59;98851.17;;;18.91;21.42
55022;BME280;68328;35.990;-86.756;2024-03-25T10:26:27;98847.02;;;18.70;21.34
55022;BME280;68328;35.990;-86.756;2024-03-25T10:28:59;98853.47;;;18.78;21.35
55022;BME280;68328;35.990;-86.756;2024-03-25T10:31:18;98848.87;;;18.86;21.63
55022;BME280;68328;35.990;-86.756;2024-03-25T10:33:39;98864.25;;;19.01;21.18
55022;BME280;68328;35.990;-86.756;2024-03-25T10:36:05;98858.61;;;18.49;21.74
55022;BME280;68328;35.990;-86.756;2024-03-25T10:38:30;98861.51;;;18.74;21.66
55022;BME280;68328;35.990;-86.756;2024-03-25T10:40:58;98856.55;;;18.78;21.53
55022;BME280;68328;35.990;-86.756;2024-03-25T10:43:20;98857.97;;;19.26;21.57
55022;BME280;68328;35.990;-86.756;2024-03-25T10:45:47;98854.60;;;19.02;21.11
55022;BME280;68328;35.990;-86.756;2024-03-25T10:48:15;98864.97;;;19.35;21.38
55022;BME280;68328;35.990;-86.756;2024-03-25T10:50:37;98859.88;;;19.14;21.12
55022;BME280;68328;35.990;-86.756;2024-03-25T10:53:02;98865.36;;;19.29;20.73
55022;BME280;68328;35.990;-86.756;2024-03-25T10:55:27;98863.76;;;19.34;20.74
55022;BME280;68328;35.990;-86.756;2024-03-25T10:57:54;98865.99;;;19.36;21.12
55022;BME280;68328;35.990;-86.756;2024-03-25T11:00:18;98860.87;;;18.95;21.06
55022;BME280;68328;35.990;-86.756;2024-03-25T11:02:43;98860.27;;;18.96;21.24
55022;BME280;68328;35.990;-86.756;2024-03-25T11:05:09;98852.37;;;19.17;21.22
55022;BME280;68328;35.990;-86.756;2024-03-25T11:07:34;98851.64;;;19.25;20.86
55022;BME280;68328;35.990;-86.756;2024-03-25T11:10:05;98853.68;;;18.54;21.22
55022;BME280;68328;35.990;-86.756;2024-03-25T11:12:32;98861.85;;;18.69;21.27
55022;BME280;68328;35.990;-86.756;2024-03-25T11:14:56;98865.96;;;18.99;21.04
55022;BME280;68328;35.990;-86.756;2024-03-25T11:17:16;98872.44;;;18.92;21.44
55022;BME280;68328;35.990;-86.756;2024-03-25T11:19:41;98865.73;;;19.05;20.82
55022;BME280;68328;35.990;-86.756;2024-03-25T11:22:10;98881.09;;;18.99;20.80
55022;BME280;68328;35.990;-86.756;2024-03-25T11:24:31;98882.20;;;18.38;20.78
55022;BME280;68328;35.990;-86.756;2024-03-25T11:26:57;98881.41;;;18.51;21.24
55022;BME280;68328;35.990;-86.756;2024-03-25T11:29:21;98885.45;;;18.77;20.85
55022;BME280;68328;35.990;-86.756;2024-03-25T11:31:49;98885.31;;;18.81;20.74
55022;BME280;68328;35.990;-86.756;2024-03-25T11:34:12;98892.04;;;18.79;21.16
55022;BME280;68328;35.990;-86.756;2024-03-25T11:36:37;98887.54;;;19.04;20.85
55022;BME280;68328;35.990;-86.756;2024-03-25T11:39:04;98891.80;;;18.80;20.67
55022;BME280;68328;35.990;-86.756;2024-03-25T11:41:28;98898.04;;;18.85;20.46
55022;BME280;68328;35.990;-86.756;2024-03-25T11:43:53;98889.99;;;18.78;20.82
55022;BME280;68328;35.990;-86.756;2024-03-25T11:46:19;98891.00;;;18.93;20.54
55022;BME280;68328;35.990;-86.756;2024-03-25T11:48:44;98883.04;;;18.54;20.59
55022;BME280;68328;35.990;-86.756;2024-03-25T11:51:13;98888.19;;;18.71;20.62
55022;BME280;68328;35.990;-86.756;2024-03-25T11:53:34;98891.97;;;18.65;21.21
55022;BME280;68328;35.990;-86.756;2024-03-25T11:56:00;98893.88;;;18.41;20.91
55022;BME280;68328;35.990;-86.756;2024-03-25T11:58:25;98896.83;;;18.11;21.28
55022;BME280;68328;35.990;-86.756;2024-03-25T12:00:51;98884.77;;;18.35;21.07
55022;BME280;68328;35.990;-86.756;2024-03-25T12:03:17;98896.30;;;18.34;21.13
55022;BME280;68328;35.990;-86.756;2024-03-25T12:05:44;98907.08;;;18.32;20.64
55022;BME280;68328;35.990;-86.756;2024-03-25T12:08:08;98905.93;;;18.19;20.94
55022;BME280;68328;35.990;-86.756;2024-03-25T12:10:32;98913.32;;;18.21;20.84
55022;BME280;68328;35.990;-86.756;2024-03-25T12:12:58;98917.94;;;17.92;20.82
55022;BME280;68328;35.990;-86.756;2024-03-25T12:15:23;98916.52;;;18.14;21.38
55022;BME280;68328;35.990;-86.756;2024-03-25T12:17:49;98921.09;;;18.19;20.61
55022;BME280;68328;35.990;-86.756;2024-03-25T12:20:14;98927.13;;;18.00;20.74
55022;BME280;68328;35.990;-86.756;2024-03-25T12:22:41;98923.79;;;17.95;20.92
55022;BME280;68328;35.990;-86.756;2024-03-25T12:25:08;98929.08;;;18.12;20.55
55022;BME280;68328;35.990;-86.756;2024-03-25T12:27:30;98936.65;;;18.11;20.64
55022;BME280;68328;35.990;-86.756;2024-03-25T12:29:59;98937.63;;;17.97;20.90